CheckWX is a tool to help pilots better visualize weather data.  It is not intended as a substitute for an official pre-flight weather briefing.

05:58:37 UTC

YOLD TAF
Olympic Dam Airport
Olympic Dam, Australia
TAF YOLD 310107Z 3102/3114 13010KT CAVOK FM310300 VRB05KT CAVOK

Mar-31@
02:00 UTC

Mar-31 @ 02:00 UTC

Mar-31@
03:00 UTC

Mar-31 @ 03:00 UTC

TAF YOLD 310107Z 3102/3114 13010KT CAVOK

Expired

Wind
  • 130° at 10 KTS
Conditions
No significant weather
Cloud Levels
  • No significant clouds

Mar-31@
03:00 UTC

Mar-31 @ 03:00 UTC

Mar-31@
14:00 UTC

Mar-31 @ 14:00 UTC

FM310300 VRB05KT CAVOK

From

From Standard forecast or significant change

Wind
  • Variable at 5 KTS
Conditions
No significant weather
Cloud Levels
  • No significant clouds